Time;durP1;ratioP1;P1;durP2;ratioP2;P2;SDS_P1;SDS_P2;PMS_P1;PMS_P2;Temp;Humidity;BMP_temperature;BMP_pressure;BME280_temperature;BME280_humidity;BME280_pressure;Samples;Min_cycle;Max_cycle;Signal;HPM_P1;HPM_P2
2023/03/12 00:00:27;;;;;;;17.30;5.40;;;;;;;-1.35;84.11;99719.39;108164;1270;22642;-80
2023/03/12 00:03:18;;;;;;;17.00;5.40;;;;;;;-1.35;84.22;99714.63;108122;1270;23951;-80
2023/03/12 00:05:49;;;;;;;17.40;5.40;;;;;;;-1.35;84.24;99714.15;108026;1273;23265;-80
2023/03/12 00:08:18;;;;;;;;;;;;;;;-1.36;84.31;99709.70;108213;1275;23177;-80
2023/03/12 00:10:48;;;;;;;15.70;3.80;;;;;;;-1.37;84.46;99698.06;108148;1275;22598;-79
2023/03/12 00:13:19;;;;;;;17.40;4.20;;;;;;;-1.36;84.43;99700.79;108132;1272;22526;-80
2023/03/12 00:15:50;;;;;;;13.50;3.20;;;;;;;-1.37;84.50;99705.19;108119;1275;22569;-80
2023/03/12 00:18:20;;;;;;;16.70;4.70;;;;;;;-1.37;84.55;99701.20;108110;1270;22848;-80
2023/03/12 00:20:56;;;;;;;17.60;4.80;;;;;;;-1.37;84.41;99700.65;108085;1273;25421;-80
2023/03/12 00:23:27;;;;;;;13.90;4.10;;;;;;;-1.38;84.56;99698.63;108169;1272;22625;-80
2023/03/12 00:26:01;;;;;;;15.90;3.90;;;;;;;-1.39;84.64;99696.60;108057;1272;22564;-79
2023/03/12 00:28:33;;;;;;;13.40;3.90;;;;;;;-1.39;84.49;99692.93;108247;1275;25576;-80
2023/03/12 00:31:13;;;;;;;13.60;3.90;;;;;;;-1.38;84.40;99695.73;108270;1269;25462;-80
2023/03/12 00:33:44;;;;;;;13.20;3.50;;;;;;;-1.38;84.62;99699.57;108217;1272;22830;-79
2023/03/12 00:36:15;;;;;;;15.60;3.30;;;;;;;-1.38;84.48;99697.45;108235;1269;22700;-80
2023/03/12 00:38:52;;;;;;;15.50;4.10;;;;;;;-1.38;84.49;99702.77;108030;1276;22643;-80
2023/03/12 00:41:23;;;;;;;13.90;3.70;;;;;;;-1.37;84.52;99702.61;108126;1265;23888;-80
2023/03/12 00:43:54;;;;;;;15.10;3.60;;;;;;;-1.38;84.52;99704.72;108038;1272;22676;-80
2023/03/12 00:46:25;;;;;;;14.80;3.30;;;;;;;-1.38;84.47;99706.13;107762;1275;25159;-79
2023/03/12 00:48:54;;;;;;;;;;;;;;;-1.37;84.37;99702.22;107763;1272;22528;-80
2023/03/12 00:51:24;;;;;;;17.60;4.00;;;;;;;-1.38;84.53;99701.21;108150;1270;25523;-80
2023/03/12 00:53:54;;;;;;;;;;;;;;;-1.38;84.49;99704.89;108092;1276;22524;-80
2023/03/12 00:56:25;;;;;;;15.90;3.40;;;;;;;-1.40;84.36;99700.13;108131;1275;25434;-79
2023/03/12 00:58:54;;;;;;;;;;;;;;;-1.40;84.42;99698.34;108147;1275;22453;-80
2023/03/12 01:01:26;;;;;;;15.00;3.60;;;;;;;-1.41;84.39;99697.11;108062;1269;22657;-80
2023/03/12 01:03:58;;;;;;;14.00;3.30;;;;;;;-1.41;84.39;99703.83;108023;1275;25465;-80
2023/03/12 01:06:29;;;;;;;15.70;3.90;;;;;;;-1.42;84.46;99706.27;108127;1270;22738;-79
2023/03/12 01:09:00;;;;;;;16.00;4.10;;;;;;;-1.42;84.39;99707.45;107550;1275;22576;-78
2023/03/12 01:11:32;;;;;;;13.60;4.20;;;;;;;-1.42;84.34;99710.02;107575;1275;23941;-80
2023/03/12 01:14:04;;;;;;;13.40;3.40;;;;;;;-1.43;84.31;99713.95;107941;1272;24151;-78
2023/03/12 01:16:35;;;;;;;12.60;3.10;;;;;;;-1.43;84.24;99716.45;107723;1275;22685;-80
2023/03/12 01:19:06;;;;;;;14.00;3.30;;;;;;;-1.44;84.27;99715.91;107632;1275;24212;-78
2023/03/12 01:21:35;;;;;;;;;;;;;;;-1.45;84.22;99718.74;107613;1275;22780;-79
2023/03/12 01:24:07;;;;;;;12.60;3.30;;;;;;;-1.47;84.32;99719.08;107539;1273;26735;-79
2023/03/12 01:26:37;;;;;;;16.80;4.40;;;;;;;-1.48;84.27;99714.16;107523;1275;22801;-79
2023/03/12 01:29:06;;;;;;;;;;;;;;;-1.49;84.33;99715.52;107614;1266;22513;-79
2023/03/12 01:31:37;;;;;;;12.30;2.80;;;;;;;-1.51;84.18;99709.05;107589;1273;24201;-79
2023/03/12 01:34:10;;;;;;;11.60;2.70;;;;;;;-1.53;84.23;99708.05;107564;1269;25521;-79
2023/03/12 01:36:41;;;;;;;13.80;3.10;;;;;;;-1.53;84.25;99705.86;107632;1275;24212;-79
2023/03/12 01:39:12;;;;;;;13.60;3.30;;;;;;;-1.54;84.19;99704.55;107367;1275;23059;-79
2023/03/12 01:41:42;;;;;;;15.90;3.60;;;;;;;-1.54;84.20;99706.58;107476;1273;22726;-79
2023/03/12 01:44:14;;;;;;;15.80;3.70;;;;;;;-1.55;84.15;99701.59;107412;1273;25296;-79
2023/03/12 01:46:46;;;;;;;11.80;2.00;;;;;;;-1.56;84.15;99702.45;107532;1269;22670;-79
2023/03/12 01:49:20;;;;;;;13.60;3.10;;;;;;;-1.57;84.06;99705.36;107568;1269;24182;-79
2023/03/12 01:51:56;;;;;;;10.70;2.60;;;;;;;-1.57;84.10;99705.90;107617;1272;22585;-79
2023/03/12 01:54:32;;;;;;;11.70;2.30;;;;;;;-1.57;84.10;99711.95;107622;1270;27753;-79
2023/03/12 01:57:06;;;;;;;14.10;2.80;;;;;;;-1.58;83.97;99712.10;107553;1276;23028;-79
2023/03/12 01:59:42;;;;;;;10.30;1.80;;;;;;;-1.59;84.10;99711.57;107608;1275;22600;-79
2023/03/12 02:02:14;;;;;;;9.40;2.20;;;;;;;-1.60;84.03;99712.75;107629;1269;22742;-79
2023/03/12 02:04:47;;;;;;;10.50;2.30;;;;;;;-1.60;84.01;99717.52;107629;1275;26738;-79
2023/03/12 02:07:18;;;;;;;12.50;2.40;;;;;;;-1.60;83.93;99722.14;107705;1272;22548;-79
2023/03/12 02:09:51;;;;;;;8.50;1.90;;;;;;;-1.59;84.03;99722.20;107473;1275;22688;-79
2023/03/12 02:12:21;;;;;;;15.30;2.10;;;;;;;-1.59;83.97;99723.77;107581;1275;22785;-79
2023/03/12 02:14:52;;;;;;;8.70;2.00;;;;;;;-1.58;83.94;99719.14;107605;1275;23044;-79
2023/03/12 02:17:23;;;;;;;8.40;1.80;;;;;;;-1.58;84.02;99720.24;107582;1273;22794;-79
2023/03/12 02:20:06;;;;;;;9.00;2.00;;;;;;;-1.58;83.97;99723.69;107649;1275;22521;-80
2023/03/12 02:22:39;;;;;;;9.30;1.90;;;;;;;-1.58;83.95;99724.31;107662;1273;22666;-79
2023/03/12 02:25:26;;;;;;;9.80;2.60;;;;;;;-1.58;84.06;99727.35;107602;1271;22534;-80
2023/03/12 02:27:58;;;;;;;10.50;1.80;;;;;;;-1.58;83.95;99726.96;108535;1272;22584;-80
2023/03/12 02:30:31;;;;;;;9.60;1.90;;;;;;;-1.60;83.84;99725.11;108738;1270;22495;-80
2023/03/12 02:33:05;;;;;;;9.80;2.30;;;;;;;-1.59;83.90;99731.05;108066;1275;24048;-80
2023/03/12 02:35:36;;;;;;;10.40;1.50;;;;;;;-1.59;83.90;99730.35;108016;1273;22657;-80
2023/03/12 02:38:35;;;;;;;9.70;1.60;;;;;;;-1.58;83.77;99731.59;108153;1275;24303;-80
2023/03/12 02:41:11;;;;;;;14.70;2.10;;;;;;;-1.57;83.74;99732.98;108104;1275;25604;-80
2023/03/12 02:43:48;;;;;;;8.20;1.40;;;;;;;-1.57;83.69;99736.41;107975;1275;22705;-80
2023/03/12 02:46:20;;;;;;;12.90;1.70;;;;;;;-1.56;83.75;99739.14;107896;1275;25581;-80
2023/03/12 02:48:51;;;;;;;11.50;1.60;;;;;;;-1.56;83.65;99736.48;107884;1276;22725;-78
2023/03/12 02:51:22;;;;;;;7.00;1.50;;;;;;;-1.55;83.54;99735.28;107601;1275;24591;-78
2023/03/12 02:53:53;;;;;;;;;;;;;;;-1.53;83.51;99739.65;107753;1275;22453;-80
2023/03/12 02:56:27;;;;;;;10.30;1.30;;;;;;;-1.51;83.38;99740.95;107651;1273;22711;-78
2023/03/12 02:58:57;;;;;;;7.00;1.40;;;;;;;-1.49;83.29;99743.98;107569;1275;24181;-78
2023/03/12 03:01:28;;;;;;;12.60;1.40;;;;;;;-1.47;83.18;99742.47;107630;1273;24213;-78
2023/03/12 03:04:00;;;;;;;4.50;1.20;;;;;;;-1.45;83.13;99739.80;107614;1270;22742;-78
2023/03/12 03:06:31;;;;;;;6.40;1.40;;;;;;;-1.43;83.09;99743.66;107738;1275;22615;-80
2023/03/12 03:09:02;;;;;;;6.80;1.00;;;;;;;-1.41;82.94;99742.86;107889;1254;22875;-78
2023/03/12 03:11:33;;;;;;;10.10;1.30;;;;;;;-1.38;82.84;99746.66;107671;1275;22519;-80
2023/03/12 03:14:05;;;;;;;8.00;1.00;;;;;;;-1.36;82.79;99756.55;107874;1272;24218;-78
2023/03/12 03:16:36;;;;;;;6.40;1.30;;;;;;;-1.34;82.71;99758.11;108036;1275;22789;-78
2023/03/12 03:19:09;;;;;;;5.50;1.10;;;;;;;-1.32;82.68;99758.39;107623;1270;23741;-80
2023/03/12 03:21:40;;;;;;;4.90;0.90;;;;;;;-1.30;82.61;99761.10;107968;1270;22558;-78
2023/03/12 03:24:10;;;;;;;8.00;1.70;;;;;;;-1.29;82.38;99764.23;107544;1275;22537;-78
2023/03/12 03:26:41;;;;;;;5.20;0.90;;;;;;;-1.28;82.47;99763.44;107582;1275;22516;-80
2023/03/12 03:29:12;;;;;;;5.80;0.90;;;;;;;-1.28;82.25;99767.27;107586;1271;22572;-78
2023/03/12 03:31:41;;;;;;;;;;;;;;;-1.28;82.23;99773.22;107633;1275;24775;-79
2023/03/12 03:34:12;;;;;;;6.60;1.00;;;;;;;-1.29;82.30;99769.86;107626;1270;22911;-78
2023/03/12 03:36:43;;;;;;;8.90;1.00;;;;;;;-1.29;82.30;99776.35;107766;1271;22655;-79
2023/03/12 03:39:12;;;;;;;;;;;;;;;-1.29;82.32;99778.39;107716;1267;26518;-79
2023/03/12 03:41:42;;;;;;;5.00;0.90;;;;;;;-1.31;82.24;99782.00;107782;1275;22921;-79
2023/03/12 03:44:13;;;;;;;7.20;1.00;;;;;;;-1.31;82.20;99781.46;108087;1275;22516;-80
2023/03/12 03:46:45;;;;;;;10.90;1.10;;;;;;;-1.32;82.27;99785.23;108045;1275;22682;-79
2023/03/12 03:49:16;;;;;;;5.50;1.00;;;;;;;-1.33;82.13;99784.39;108052;1270;22642;-79
2023/03/12 03:51:47;;;;;;;7.50;0.80;;;;;;;-1.33;82.13;99782.04;108136;1274;22538;-79
2023/03/12 03:54:16;;;;;;;;;;;;;;;-1.33;81.98;99782.04;108123;1274;22439;-79
2023/03/12 03:56:47;;;;;;;5.20;0.90;;;;;;;-1.33;82.04;99783.45;108036;1269;26081;-79
2023/03/12 03:59:18;;;;;;;11.80;1.30;;;;;;;-1.33;81.84;99785.95;107995;1273;24377;-79
2023/03/12 04:01:49;;;;;;;10.40;1.30;;;;;;;-1.32;81.88;99786.23;108039;1273;22537;-79
2023/03/12 04:04:19;;;;;;;8.20;1.20;;;;;;;-1.33;81.93;99789.79;108058;1274;25527;-80
2023/03/12 04:06:50;;;;;;;6.00;0.80;;;;;;;-1.33;81.70;99793.92;108097;1269;24419;-79
2023/03/12 04:09:19;;;;;;;;;;;;;;;-1.32;81.76;99792.35;108133;1275;22590;-80
2023/03/12 04:11:50;;;;;;;7.50;1.00;;;;;;;-1.33;81.73;99791.20;107921;1275;24257;-80
2023/03/12 04:14:20;;;;;;;4.10;1.00;;;;;;;-1.34;81.72;99794.64;107867;1271;24292;-79
2023/03/12 04:16:51;;;;;;;4.30;0.90;;;;;;;-1.34;81.53;99797.23;108002;1275;22611;-79
2023/03/12 04:19:20;;;;;;;;;;;;;;;-1.34;81.56;99801.59;108080;1270;25536;-80
2023/03/12 04:21:51;;;;;;;7.40;0.90;;;;;;;-1.33;81.47;99801.36;108117;1270;22619;-79
2023/03/12 04:24:20;;;;;;;;;;;;;;;-1.32;81.44;99806.81;108046;1272;22611;-80
2023/03/12 04:26:51;;;;;;;5.70;0.90;;;;;;;-1.30;81.37;99808.05;108031;1275;25625;-79
2023/03/12 04:29:22;;;;;;;6.30;1.10;;;;;;;-1.27;81.43;99811.77;107928;1269;24304;-80
2023/03/12 04:31:51;;;;;;;;;;;;;;;-1.24;81.33;99811.80;108019;1271;22682;-80
2023/03/12 04:34:21;;;;;;;7.60;1.00;;;;;;;-1.20;81.24;99811.21;107989;1264;22598;-79
2023/03/12 04:36:52;;;;;;;14.10;1.00;;;;;;;-1.14;81.09;99812.94;108002;1270;22578;-80
2023/03/12 04:39:21;;;;;;;;;;;;;;;-1.08;80.83;99820.45;107987;1275;22644;-79
2023/03/12 04:41:52;;;;;;;5.20;0.80;;;;;;;-1.02;80.58;99824.61;107927;1275;24258;-79
2023/03/12 04:44:21;;;;;;;;;;;;;;;-0.97;80.77;99829.30;108058;1272;22662;-80
2023/03/12 04:46:51;;;;;;;6.70;1.20;;;;;;;-0.93;80.69;99832.23;108000;1273;22592;-79
2023/03/12 04:49:22;;;;;;;5.70;0.90;;;;;;;-0.87;80.55;99834.44;107999;1275;22567;-79
2023/03/12 04:51:53;;;;;;;6.20;0.80;;;;;;;-0.82;80.42;99837.73;108003;1275;25435;-80
2023/03/12 04:54:24;;;;;;;5.50;0.80;;;;;;;-0.77;79.94;99835.39;108064;1268;22529;-80
2023/03/12 04:56:54;;;;;;;4.20;0.80;;;;;;;-0.72;79.63;99837.13;108067;1275;23412;-80
2023/03/12 04:59:25;;;;;;;4.40;0.80;;;;;;;-0.70;79.87;99838.50;108054;1273;24316;-80
2023/03/12 05:01:56;;;;;;;4.50;0.70;;;;;;;-0.68;79.45;99842.39;108037;1275;24210;-84
2023/03/12 05:04:26;;;;;;;4.00;0.70;;;;;;;-0.66;79.48;99846.36;108284;1270;22560;-84
2023/03/12 05:06:57;;;;;;;5.10;0.80;;;;;;;-0.65;79.45;99846.27;108336;1269;22988;-85
2023/03/12 05:09:28;;;;;;;5.90;0.90;;;;;;;-0.64;79.32;99848.06;108343;1275;22517;-84
2023/03/12 05:11:59;;;;;;;5.40;0.90;;;;;;;-0.64;79.37;99850.40;108281;1275;22546;-85
2023/03/12 05:14:30;;;;;;;4.10;0.70;;;;;;;-0.62;79.32;99857.42;108210;1275;22820;-84
2023/03/12 05:17:01;;;;;;;4.60;0.80;;;;;;;-0.61;79.15;99858.34;108261;1275;24757;-85
2023/03/12 05:19:31;;;;;;;5.50;0.80;;;;;;;-0.59;79.01;99855.66;108211;1269;22480;-84
2023/03/12 05:22:01;;;;;;;;;;;;;;;-0.58;78.82;99856.45;108256;1269;22506;-84
2023/03/12 05:24:32;;;;;;;4.40;0.70;;;;;;;-0.58;78.82;99858.95;108174;1272;22524;-84
2023/03/12 05:27:03;;;;;;;7.30;0.70;;;;;;;-0.60;78.63;99863.89;108289;1271;22581;-84
2023/03/12 05:29:34;;;;;;;6.80;0.70;;;;;;;-0.60;78.18;99865.69;108340;1274;22771;-85
2023/03/12 05:32:07;;;;;;;6.90;0.60;;;;;;;-0.60;78.36;99867.56;108260;1272;22542;-84
2023/03/12 05:34:38;;;;;;;3.40;0.60;;;;;;;-0.60;78.25;99869.77;108216;1274;22543;-85
2023/03/12 05:37:09;;;;;;;5.30;0.70;;;;;;;-0.60;78.09;99871.35;108303;1269;24102;-85
2023/03/12 05:39:45;;;;;;;5.70;0.70;;;;;;;-0.61;78.03;99874.16;108379;1275;25939;-85
2023/03/12 05:42:16;;;;;;;3.10;0.60;;;;;;;-0.61;78.10;99873.23;108300;1275;24215;-85
2023/03/12 05:44:47;;;;;;;4.20;0.70;;;;;;;-0.62;77.99;99874.58;108198;1272;22526;-84
2023/03/12 05:47:18;;;;;;;4.90;0.80;;;;;;;-0.61;78.03;99880.91;108306;1274;22518;-84
2023/03/12 05:49:49;;;;;;;7.00;0.50;;;;;;;-0.59;77.87;99885.34;108313;1275;24542;-84
2023/03/12 05:52:20;;;;;;;4.50;0.60;;;;;;;-0.58;77.98;99888.38;108272;1270;22603;-84
2023/03/12 05:54:52;;;;;;;5.70;0.70;;;;;;;-0.56;77.87;99889.77;108236;1272;25448;-84
2023/03/12 05:57:22;;;;;;;4.60;0.60;;;;;;;-0.54;77.68;99886.52;108301;1270;25550;-84
2023/03/12 05:59:52;;;;;;;;;;;;;;;-0.50;77.66;99887.73;108301;1274;23564;-84
2023/03/12 06:02:23;;;;;;;5.30;0.80;;;;;;;-0.46;77.75;99890.56;108256;1270;23345;-84
2023/03/12 06:04:53;;;;;;;5.90;0.80;;;;;;;-0.42;77.57;99895.45;108249;1268;23335;-84
2023/03/12 06:07:24;;;;;;;5.40;0.40;;;;;;;-0.38;77.11;99900.10;108177;1274;22518;-84
2023/03/12 06:09:56;;;;;;;5.70;0.70;;;;;;;-0.34;77.22;99902.25;108263;1272;22570;-84
2023/03/12 06:12:27;;;;;;;2.50;0.40;;;;;;;-0.30;77.24;99906.49;108264;1272;22508;-83
2023/03/12 06:14:58;;;;;;;4.00;0.70;;;;;;;-0.25;77.20;99912.36;108236;1274;22568;-84
2023/03/12 06:17:30;;;;;;;9.40;0.60;;;;;;;-0.19;77.02;99913.77;108264;1268;25992;-84
2023/03/12 06:20:01;;;;;;;6.00;0.80;;;;;;;-0.13;77.10;99917.28;108408;1272;22519;-83
2023/03/12 06:22:33;;;;;;;7.80;0.80;;;;;;;-0.10;77.10;99919.59;108266;1275;25242;-84
2023/03/12 06:25:05;;;;;;;6.10;0.70;;;;;;;-0.09;76.55;99925.83;108373;1269;22828;-82
2023/03/12 06:27:36;;;;;;;10.30;0.70;;;;;;;-0.06;76.35;99926.52;108641;1269;22527;-83
2023/03/12 06:30:09;;;;;;;6.50;0.70;;;;;;;-0.05;76.38;99926.97;108048;1269;22527;-82
2023/03/12 06:32:40;;;;;;;6.10;0.60;;;;;;;-0.04;76.13;99930.15;108928;1269;22626;-83
2023/03/12 06:35:11;;;;;;;4.60;0.60;;;;;;;0.01;76.25;99929.79;108276;1275;22535;-83
2023/03/12 06:37:42;;;;;;;6.40;0.70;;;;;;;0.04;75.86;99929.17;108243;1269;22529;-83
2023/03/12 06:40:14;;;;;;;4.90;0.60;;;;;;;0.09;75.38;99928.09;108176;1272;22559;-83
2023/03/12 06:42:44;;;;;;;5.60;0.70;;;;;;;0.14;75.40;99925.96;108464;1269;24280;-84
2023/03/12 06:45:15;;;;;;;6.10;0.70;;;;;;;0.20;75.57;99929.17;108358;1271;24185;-84
2023/03/12 06:47:44;;;;;;;;;;;;;;;0.24;75.61;99934.58;108222;1274;22516;-83
2023/03/12 06:50:15;;;;;;;3.70;0.50;;;;;;;0.29;75.44;99939.77;108349;1272;23108;-84
2023/03/12 06:52:46;;;;;;;6.00;0.70;;;;;;;0.34;75.24;99946.89;108158;1269;22531;-84
2023/03/12 06:55:17;;;;;;;4.20;0.60;;;;;;;0.40;75.09;99953.00;108265;1269;22648;-85
2023/03/12 06:57:48;;;;;;;5.70;0.80;;;;;;;0.46;75.14;99954.31;108358;1275;22640;-85
2023/03/12 07:00:20;;;;;;;4.90;1.00;;;;;;;0.50;75.32;99957.00;108352;1268;22565;-84
2023/03/12 07:02:51;;;;;;;4.40;0.80;;;;;;;0.54;74.98;99962.80;108385;1275;24212;-84
2023/03/12 07:05:22;;;;;;;6.40;0.70;;;;;;;0.57;74.92;99965.18;108385;1269;22516;-85
2023/03/12 07:07:54;;;;;;;5.30;0.80;;;;;;;0.61;74.81;99969.60;108426;1269;24205;-84
2023/03/12 07:10:27;;;;;;;8.60;0.90;;;;;;;0.62;74.82;99968.08;108382;1267;23979;-84
2023/03/12 07:12:58;;;;;;;6.00;0.80;;;;;;;0.65;74.80;99968.10;108519;1274;25211;-81
2023/03/12 07:15:29;;;;;;;11.50;1.50;;;;;;;0.69;74.28;99971.95;108389;1269;24303;-80
2023/03/12 07:18:04;;;;;;;5.70;0.80;;;;;;;0.74;74.23;99967.95;108262;1274;22557;-80
2023/03/12 07:20:37;;;;;;;5.90;0.90;;;;;;;0.82;74.67;99968.84;108040;1259;180740;-80
2023/03/12 07:23:08;;;;;;;4.20;0.70;;;;;;;0.88;74.70;99971.09;108360;1275;23336;-80
2023/03/12 07:25:41;;;;;;;7.50;1.00;;;;;;;0.94;74.41;99978.36;108312;1275;22697;-80
2023/03/12 07:28:12;;;;;;;6.30;0.90;;;;;;;1.00;74.46;99979.19;108281;1269;22578;-80
2023/03/12 07:30:49;;;;;;;5.80;0.90;;;;;;;1.09;74.70;99987.04;108287;1273;25395;-80
2023/03/12 07:33:22;;;;;;;5.60;0.80;;;;;;;1.20;73.89;99987.38;108314;1270;24282;-80
2023/03/12 07:35:53;;;;;;;7.30;1.00;;;;;;;1.28;73.93;99990.77;108521;1268;22630;-79
2023/03/12 07:38:24;;;;;;;7.60;0.90;;;;;;;1.33;74.21;99998.27;108456;1269;25591;-79
2023/03/12 07:40:57;;;;;;;6.90;1.00;;;;;;;1.38;73.40;99993.38;108545;1270;22557;-79
2023/03/12 07:43:29;;;;;;;10.00;1.00;;;;;;;1.43;73.85;99999.80;108242;1259;22522;-79
2023/03/12 07:45:59;;;;;;;8.10;1.10;;;;;;;1.48;73.58;100001.12;108503;1269;23899;-79
2023/03/12 07:48:30;;;;;;;6.90;1.10;;;;;;;1.51;73.61;100001.46;108669;1271;23883;-80
2023/03/12 07:51:01;;;;;;;8.70;1.00;;;;;;;1.54;72.93;99998.73;108545;1274;24256;-79
2023/03/12 07:53:33;;;;;;;5.70;0.80;;;;;;;1.57;73.17;99996.46;108661;1274;22583;-79
2023/03/12 07:56:03;;;;;;;8.20;0.70;;;;;;;1.59;73.75;99997.12;108592;1268;24054;-79
2023/03/12 07:58:35;;;;;;;5.30;0.90;;;;;;;1.65;73.73;99994.42;108705;1268;23245;-79
2023/03/12 08:01:06;;;;;;;6.00;0.90;;;;;;;1.71;73.27;99996.65;108284;1272;23078;-79
2023/03/12 08:03:37;;;;;;;9.40;1.10;;;;;;;1.77;73.10;99998.25;108344;1252;24197;-79
2023/03/12 08:06:09;;;;;;;12.90;1.30;;;;;;;1.81;73.11;99992.89;108559;1267;22552;-79
2023/03/12 08:08:41;;;;;;;2.90;0.70;;;;;;;1.86;73.14;99995.46;108380;1274;22520;-79
2023/03/12 08:19:19;;;;;;;5.60;1.00;;;;;;;1.92;71.67;99994.55;108802;1269;22534;-79
2023/03/12 08:21:50;;;;;;;9.40;1.10;;;;;;;1.89;71.96;100003.50;108655;1269;22493;-78
2023/03/12 08:24:23;;;;;;;4.50;0.70;;;;;;;1.87;71.98;100008.26;108137;1269;25241;-80
2023/03/12 08:26:54;;;;;;;6.90;1.00;;;;;;;1.89;72.38;100007.66;108018;1275;22519;-82
2023/03/12 08:29:26;;;;;;;9.20;1.50;;;;;;;1.95;72.08;100005.10;108014;1269;23318;-78
2023/03/12 08:31:57;;;;;;;6.80;1.00;;;;;;;2.01;72.37;100005.58;107625;1275;23277;-76
2023/03/12 08:34:28;;;;;;;7.80;1.10;;;;;;;2.05;72.14;100005.98;107425;1269;25507;-78
2023/03/12 08:36:58;;;;;;;7.20;1.00;;;;;;;2.06;72.09;100008.16;107329;1275;26530;-76
2023/03/12 08:39:29;;;;;;;9.50;1.10;;;;;;;2.05;71.48;100007.40;107529;1271;22583;-77
2023/03/12 08:42:01;;;;;;;10.40;1.30;;;;;;;2.04;71.80;100009.46;107619;1268;22622;-78
2023/03/12 08:44:32;;;;;;;11.90;2.20;;;;;;;2.03;71.62;100013.25;108125;1259;22575;-78
2023/03/12 08:47:03;;;;;;;10.80;1.30;;;;;;;2.02;71.32;100012.41;107734;1259;22470;-78
2023/03/12 08:49:34;;;;;;;8.70;1.20;;;;;;;2.02;71.50;100015.55;107816;1268;25438;-78
2023/03/12 08:52:05;;;;;;;11.90;1.40;;;;;;;2.05;72.05;100015.09;107659;1269;25142;-77
2023/03/12 08:54:36;;;;;;;8.20;1.10;;;;;;;2.13;71.99;100021.46;107603;1268;22549;-78
2023/03/12 08:57:07;;;;;;;8.00;1.00;;;;;;;2.18;72.00;100018.58;107640;1275;22528;-77
2023/03/12 08:59:38;;;;;;;6.60;1.40;;;;;;;2.22;71.56;100020.62;107635;1274;23158;-78
2023/03/12 09:02:10;;;;;;;9.70;1.10;;;;;;;2.23;71.63;100022.56;107759;1269;23223;-77
2023/03/12 09:04:41;;;;;;;8.50;1.20;;;;;;;2.27;71.96;100022.71;107724;1268;25421;-79
2023/03/12 09:07:12;;;;;;;9.50;1.40;;;;;;;2.32;72.19;100023.29;107919;1275;23415;-79
2023/03/12 09:09:43;;;;;;;11.80;1.40;;;;;;;2.40;71.68;100021.87;107768;1269;22841;-78
2023/03/12 09:12:14;;;;;;;4.20;0.80;;;;;;;2.44;71.59;100021.83;107804;1269;22964;-79
2023/03/12 09:14:46;;;;;;;8.90;1.10;;;;;;;2.49;71.45;100021.56;108035;1262;119601;-78
2023/03/12 09:17:17;;;;;;;7.80;1.30;;;;;;;2.53;71.35;100020.54;108613;1268;22711;-78
2023/03/12 09:19:48;;;;;;;7.80;1.40;;;;;;;2.58;71.24;100022.77;108397;1275;22517;-79
2023/03/12 09:22:19;;;;;;;7.00;0.90;;;;;;;2.58;70.70;100020.25;108448;1274;25997;-79
2023/03/12 09:24:50;;;;;;;5.10;0.90;;;;;;;2.58;70.88;100015.92;108387;1270;22544;-78
2023/03/12 09:27:21;;;;;;;8.90;1.10;;;;;;;2.61;70.78;100015.55;108354;1275;24049;-79
2023/03/12 09:29:53;;;;;;;7.00;1.00;;;;;;;2.64;70.98;100021.20;107802;1276;22645;-78
2023/03/12 09:32:26;;;;;;;6.30;1.00;;;;;;;2.70;71.00;100017.15;107826;1269;22631;-77
2023/03/12 09:34:57;;;;;;;7.50;1.60;;;;;;;2.76;70.42;100025.56;107896;1275;22541;-77
2023/03/12 09:37:28;;;;;;;7.50;1.30;;;;;;;2.77;70.19;100023.48;107910;1275;22455;-77
2023/03/12 09:39:59;;;;;;;8.40;1.10;;;;;;;2.79;70.28;100022.17;108034;1268;22562;-78
2023/03/12 09:42:38;;;;;;;5.00;0.80;;;;;;;2.84;70.90;100021.34;108598;1269;22486;-78
2023/03/12 09:45:17;;;;;;;7.30;1.00;;;;;;;2.89;70.02;100019.02;108460;1270;22542;-78
2023/03/12 09:47:52;;;;;;;8.60;0.80;;;;;;;2.93;69.94;100025.20;107904;1269;23245;-78
2023/03/12 09:50:28;;;;;;;7.10;0.90;;;;;;;2.97;70.28;100024.30;108451;1269;24734;-78
2023/03/12 09:53:05;;;;;;;5.10;1.20;;;;;;;3.00;69.80;100025.52;107918;1273;22542;-79
2023/03/12 09:55:40;;;;;;;6.60;0.90;;;;;;;2.97;68.91;100023.38;107964;1268;22627;-78
2023/03/12 09:58:17;;;;;;;5.00;0.80;;;;;;;2.94;69.55;100018.66;107822;1273;24302;-79
2023/03/12 10:00:49;;;;;;;8.10;1.00;;;;;;;2.98;70.25;100019.10;107901;1269;22505;-78
2023/03/12 10:03:30;;;;;;;4.40;0.80;;;;;;;3.01;69.94;100017.05;107824;1269;22516;-80
2023/03/12 10:06:11;;;;;;;7.40;1.30;;;;;;;3.07;70.00;100018.77;108599;1275;22567;-79
2023/03/12 10:08:55;;;;;;;6.00;1.30;;;;;;;3.15;69.90;100014.79;108572;1275;22527;-80
2023/03/12 10:11:39;;;;;;;8.20;0.90;;;;;;;3.25;69.72;100012.61;108480;1270;25272;-79
2023/03/12 10:14:21;;;;;;;5.50;0.90;;;;;;;3.32;69.23;100017.27;108468;1268;22539;-79
2023/03/12 10:17:04;;;;;;;2.90;0.40;;;;;;;3.36;69.42;100013.23;108553;1269;22550;-79
2023/03/12 10:20:04;;;;;;;5.40;0.60;;;;;;;3.42;68.87;100014.85;108367;1268;22520;-80
2023/03/12 10:22:52;;;;;;;5.50;0.80;;;;;;;3.49;68.84;100012.84;108277;1275;22680;-79
2023/03/12 10:25:34;;;;;;;5.50;0.70;;;;;;;3.55;68.78;100015.98;108699;1268;22487;-79
2023/03/12 10:28:15;;;;;;;7.30;0.70;;;;;;;3.60;68.22;100024.18;109025;1268;22556;-79
2023/03/12 10:30:54;;;;;;;9.40;1.00;;;;;;;3.62;68.20;100024.67;108258;1275;22520;-78
2023/03/12 10:33:37;;;;;;;8.60;1.10;;;;;;;3.64;68.12;100028.42;107964;1276;25497;-79
2023/03/12 10:36:16;;;;;;;8.70;1.30;;;;;;;3.70;68.74;100027.07;108049;1269;24192;-80
2023/03/12 10:38:48;;;;;;;6.20;0.90;;;;;;;3.80;69.17;100024.89;108691;1268;22555;-78
2023/03/12 10:41:24;;;;;;;7.20;1.20;;;;;;;3.91;69.27;100026.61;108111;1264;23707;-81
2023/03/12 10:43:57;;;;;;;7.40;1.00;;;;;;;4.05;68.93;100026.46;109915;1268;22476;-79
2023/03/12 10:46:51;;;;;;;7.00;1.00;;;;;;;4.15;68.67;100031.11;108358;1263;24229;-79
2023/03/12 10:49:33;;;;;;;7.20;1.30;;;;;;;4.24;68.05;100033.52;108421;1271;22518;-79
2023/03/12 10:52:15;;;;;;;6.10;1.00;;;;;;;4.27;67.47;100034.23;108387;1265;24249;-81
2023/03/12 10:54:47;;;;;;;11.20;1.20;;;;;;;4.29;67.36;100033.77;108611;1268;22544;-79
2023/03/12 10:57:19;;;;;;;6.30;1.00;;;;;;;4.33;67.32;100038.38;108514;1264;22559;-80
2023/03/12 10:59:50;;;;;;;6.00;1.20;;;;;;;4.34;66.58;100031.88;108457;1275;24669;-81
2023/03/12 11:02:32;;;;;;;7.30;1.30;;;;;;;4.31;66.37;100033.47;108644;1268;22562;-81
2023/03/12 11:05:19;;;;;;;8.60;1.20;;;;;;;4.27;65.91;100030.13;108659;1255;22555;-82
2023/03/12 11:07:50;;;;;;;5.50;1.00;;;;;;;4.22;65.17;100031.92;108672;1273;22610;-82
2023/03/12 11:10:24;;;;;;;19.00;5.10;;;;;;;4.19;66.18;100028.73;108692;1275;22520;-81
2023/03/12 11:13:09;;;;;;;21.80;5.20;;;;;;;4.17;66.12;100026.73;108559;1271;26611;-81
2023/03/12 11:15:42;;;;;;;8.80;1.70;;;;;;;4.16;66.07;100024.14;108587;1268;22529;-81
2023/03/12 11:18:24;;;;;;;5.10;1.00;;;;;;;4.15;65.74;100026.22;108504;1262;22538;-81
2023/03/12 11:20:57;;;;;;;21.00;4.50;;;;;;;4.20;66.07;100019.84;108839;1273;22602;-80
2023/03/12 11:23:31;;;;;;;19.70;5.40;;;;;;;4.25;65.31;100017.40;108559;1270;22619;-81
2023/03/12 11:26:04;;;;;;;10.90;1.80;;;;;;;4.30;65.87;100012.48;108641;1270;22535;-81
2023/03/12 11:28:42;;;;;;;9.30;2.70;;;;;;;4.37;65.08;100008.79;108465;1268;22641;-81
2023/03/12 11:31:21;;;;;;;6.70;1.00;;;;;;;4.43;64.92;100005.23;108704;1270;22481;-81
2023/03/12 11:33:55;;;;;;;6.60;1.00;;;;;;;4.47;64.82;100003.52;108739;1271;22482;-81
2023/03/12 11:36:46;;;;;;;6.30;1.50;;;;;;;4.51;64.23;100002.20;108657;1269;23311;-81
2023/03/12 11:39:26;;;;;;;9.00;1.10;;;;;;;4.57;64.20;99996.32;108496;1275;22536;-81
2023/03/12 11:42:24;;;;;;;6.90;0.90;;;;;;;4.65;64.40;99992.96;108417;1275;25291;-80
2023/03/12 11:45:07;;;;;;;6.10;1.00;;;;;;;4.75;64.19;99987.51;108479;1273;22498;-81
2023/03/12 11:47:56;;;;;;;4.30;0.80;;;;;;;4.83;63.36;99990.70;108492;1275;22586;-81
2023/03/12 11:50:44;;;;;;;5.50;1.10;;;;;;;4.83;62.65;99989.83;108514;1275;24235;-82
2023/03/12 11:53:30;;;;;;;6.60;1.00;;;;;;;4.83;63.19;99985.00;108434;1265;22550;-81
2023/03/12 11:56:19;;;;;;;5.70;1.00;;;;;;;4.85;62.86;99987.97;108447;1275;22558;-80
2023/03/12 11:59:17;;;;;;;6.70;1.10;;;;;;;4.86;62.58;99985.06;108500;1265;24185;-80
2023/03/12 12:01:58;;;;;;;7.40;1.30;;;;;;;4.86;62.73;99984.76;108514;1273;22929;-80
2023/03/12 12:05:02;;;;;;;9.10;1.10;;;;;;;4.86;62.60;99985.14;108391;1268;23016;-80